Time;durP1;ratioP1;P1;durP2;ratioP2;P2;SDS_P1;SDS_P2;PMS_P1;PMS_P2;Temp;Humidity;BMP_temperature;BMP_pressure;BME280_temperature;BME280_humidity;BME280_pressure;Samples;Min_cycle;Max_cycle;Signal;HPM_P1;HPM_P2
2021/09/23 00:00:52;;;;;;;8.20;7.40;;;;;;;11.22;61.38;95272.50;4935941;29;20109;-82
2021/09/23 00:06:06;;;;;;;14.05;7.95;;;;;;;11.12;61.67;95277.47;4938238;29;20091;-82
2021/09/23 00:08:32;;;;;;;7.38;6.68;;;;;;;11.09;62.18;95275.31;4935993;29;20043;-82
2021/09/23 00:10:57;;;;;;;7.15;6.47;;;;;;;11.12;62.11;95272.28;4937548;29;20028;-82
2021/09/23 00:13:27;;;;;;;6.85;6.25;;;;;;;11.15;61.71;95271.81;4944907;29;20047;-80
2021/09/23 00:15:53;;;;;;;7.15;6.45;;;;;;;11.16;61.76;95268.19;4949671;29;20167;-80
2021/09/23 00:18:19;;;;;;;7.82;7.03;;;;;;;11.15;61.89;95266.63;4946962;29;20059;-81
2021/09/23 00:21:11;;;;;;;6.40;5.80;;;;;;;11.13;62.23;95268.66;4935653;29;20020;-83
2021/09/23 00:23:37;;;;;;;6.60;5.90;;;;;;;11.14;62.00;95262.44;4934984;29;20515;-83
2021/09/23 00:26:02;;;;;;;6.43;5.85;;;;;;;11.11;61.92;95255.06;4935943;29;20039;-82
2021/09/23 00:28:28;;;;;;;6.60;6.00;;;;;;;11.12;62.30;95259.25;4918898;29;20146;-83
2021/09/23 00:30:56;;;;;;;6.10;5.45;;;;;;;11.04;62.54;95262.16;4934251;29;20031;-84
2021/09/23 00:33:22;;;;;;;5.80;5.38;;;;;;;11.04;62.37;95256.97;4934849;29;20208;-83
2021/09/23 00:35:47;;;;;;;5.97;5.47;;;;;;;10.99;62.38;95254.25;4936220;29;20047;-83
2021/09/23 00:38:13;;;;;;;4.60;4.30;;;;;;;10.96;63.13;95246.88;4937205;29;20051;-83
2021/09/23 00:40:39;;;;;;;4.53;4.13;;;;;;;10.93;62.74;95258.53;4936368;29;20108;-83
2021/09/23 00:43:05;;;;;;;5.05;4.55;;;;;;;10.89;63.38;95261.78;4919479;29;20102;-83
2021/09/23 00:45:31;;;;;;;4.60;4.20;;;;;;;10.83;63.10;95261.66;4936295;29;20040;-83
2021/09/23 00:47:56;;;;;;;4.47;4.03;;;;;;;10.87;63.75;95264.63;4920928;29;20047;-84
2021/09/23 00:50:22;;;;;;;4.95;4.28;;;;;;;10.87;63.64;95256.03;4937161;29;20479;-84
2021/09/23 00:52:48;;;;;;;4.65;4.25;;;;;;;10.89;63.55;95251.38;4935324;29;20114;-84
2021/09/23 00:55:13;;;;;;;4.45;4.15;;;;;;;10.92;63.80;95250.97;4935952;29;20107;-85
2021/09/23 00:57:39;;;;;;;5.40;4.93;;;;;;;10.93;64.40;95261.13;4936153;29;20031;-86
2021/09/23 01:00:30;;;;;;;4.75;4.15;;;;;;;11.02;63.75;95251.97;4918766;29;20036;-84
2021/09/23 01:02:55;;;;;;;4.65;4.20;;;;;;;11.04;63.41;95252.56;4937278;29;20106;-83
2021/09/23 01:05:20;;;;;;;4.18;3.80;;;;;;;11.12;63.16;95256.66;4942172;23;20043;-83
2021/09/23 01:07:47;;;;;;;4.78;4.38;;;;;;;11.17;63.13;95256.75;4937571;29;20067;-86
2021/09/23 01:10:13;;;;;;;4.38;3.97;;;;;;;11.18;63.00;95250.53;4935629;29;20081;-86
2021/09/23 01:12:39;;;;;;;4.63;4.22;;;;;;;11.24;63.22;95254.88;4907820;29;20058;-85
2021/09/23 01:15:05;;;;;;;4.30;3.97;;;;;;;11.23;62.52;95258.50;4928272;29;20035;-85
2021/09/23 01:17:31;;;;;;;4.18;3.78;;;;;;;11.20;62.70;95247.72;4910297;29;20054;-84
2021/09/23 01:19:56;;;;;;;5.75;4.13;;;;;;;11.21;62.71;95255.28;4918530;29;20032;-85
2021/09/23 01:22:22;;;;;;;3.80;3.47;;;;;;;11.22;62.69;95256.09;4910093;29;20031;-85
2021/09/23 01:24:50;;;;;;;4.80;3.75;;;;;;;11.19;63.03;95252.13;4924066;29;20114;-84
2021/09/23 01:27:16;;;;;;;3.75;3.40;;;;;;;11.10;62.97;95256.09;4926435;29;20122;-85
2021/09/23 01:29:41;;;;;;;3.75;3.30;;;;;;;11.08;63.52;95256.31;4926994;29;20655;-85
2021/09/23 01:32:08;;;;;;;3.40;3.20;;;;;;;11.07;63.68;95246.13;4926045;29;20063;-84
2021/09/23 01:34:34;;;;;;;3.42;3.05;;;;;;;11.11;63.32;95250.66;4907535;29;20048;-84
2021/09/23 01:36:59;;;;;;;3.47;3.17;;;;;;;11.11;63.35;95258.47;4985603;23;20050;-84
2021/09/23 01:39:26;;;;;;;3.92;3.63;;;;;;;11.07;63.19;95254.72;4933078;29;20035;-83
2021/09/23 01:41:51;;;;;;;5.32;3.30;;;;;;;11.01;63.48;95254.81;4975051;23;20105;-83
2021/09/23 01:44:17;;;;;;;3.40;3.20;;;;;;;11.07;63.72;95259.16;4941998;28;20040;-83
2021/09/23 01:46:42;;;;;;;5.57;4.50;;;;;;;11.04;63.82;95249.16;4935182;29;20535;-83
2021/09/23 01:49:08;;;;;;;3.78;3.47;;;;;;;11.01;64.01;95249.59;4923211;29;20036;-83
2021/09/23 01:51:33;;;;;;;4.13;3.80;;;;;;;11.04;63.53;95249.16;4917088;29;20050;-84
2021/09/23 01:53:59;;;;;;;4.65;4.25;;;;;;;11.06;64.09;95247.13;4927649;29;20046;-84
2021/09/23 01:56:24;;;;;;;3.83;3.53;;;;;;;11.05;63.59;95248.13;4924253;29;20046;-83
2021/09/23 01:58:50;;;;;;;3.72;3.42;;;;;;;11.06;64.11;95252.31;4927271;29;20449;-84
2021/09/23 02:01:16;;;;;;;3.92;3.63;;;;;;;11.01;63.87;95244.41;4918316;29;20044;-84
2021/09/23 02:03:42;;;;;;;4.88;3.78;;;;;;;11.03;64.12;95247.56;4935590;29;20036;-82
2021/09/23 02:08:49;;;;;;;4.10;3.80;;;;;;;10.96;64.20;95252.09;5177451;23;20058;-82
2021/09/23 02:11:15;;;;;;;3.45;3.25;;;;;;;10.94;64.50;95246.31;4929583;29;20036;-83
2021/09/23 02:13:40;;;;;;;6.03;3.58;;;;;;;10.91;65.00;95239.75;4924304;29;20036;-83
2021/09/23 02:16:06;;;;;;;4.35;3.47;;;;;;;10.91;64.37;95242.38;4925106;29;20040;-84
2021/09/23 02:18:31;;;;;;;3.55;3.30;;;;;;;10.99;64.72;95247.22;4924907;29;20032;-84
2021/09/23 02:20:57;;;;;;;3.92;3.15;;;;;;;11.01;64.80;95247.00;4908573;29;20110;-84
2021/09/23 02:23:22;;;;;;;3.33;3.13;;;;;;;11.03;64.56;95247.56;4910625;29;20044;-83
2021/09/23 02:25:48;;;;;;;4.43;4.03;;;;;;;11.05;64.10;95248.13;4909561;29;20505;-84
2021/09/23 02:28:13;;;;;;;3.28;3.05;;;;;;;11.09;64.13;95249.28;4908580;29;20104;-84
2021/09/23 02:30:39;;;;;;;5.50;3.50;;;;;;;11.16;63.67;95251.78;4892086;29;20043;-85
2021/09/23 02:33:04;;;;;;;4.07;3.63;;;;;;;11.10;64.51;95249.06;4908029;29;20078;-83
2021/09/23 02:35:30;;;;;;;3.28;3.08;;;;;;;11.11;64.08;95249.88;4907153;29;20035;-84
2021/09/23 02:37:56;;;;;;;2.83;2.63;;;;;;;11.02;64.40;95241.56;4905158;29;20076;-83
2021/09/23 02:40:22;;;;;;;2.65;2.55;;;;;;;10.96;64.22;95246.88;4948817;29;20091;-83
2021/09/23 02:42:47;;;;;;;3.05;2.85;;;;;;;10.87;64.60;95238.59;4917802;29;20044;-82
2021/09/23 02:45:13;;;;;;;3.60;3.30;;;;;;;10.89;64.77;95248.78;4932802;29;20068;-82
2021/09/23 02:47:39;;;;;;;3.22;3.03;;;;;;;10.90;64.78;95250.38;4895942;29;20038;-83
2021/09/23 02:50:05;;;;;;;3.20;3.00;;;;;;;10.93;65.18;95249.94;4928302;29;20044;-83
2021/09/23 02:52:30;;;;;;;4.38;4.07;;;;;;;10.97;64.77;95249.25;4928885;29;20043;-83
2021/09/23 02:54:56;;;;;;;4.07;3.70;;;;;;;11.04;64.37;95249.16;4927995;29;20038;-81
2021/09/23 02:57:21;;;;;;;3.30;3.00;;;;;;;11.05;64.65;95250.75;4928329;29;20043;-80
2021/09/23 02:59:47;;;;;;;3.88;3.20;;;;;;;11.08;64.14;95253.72;4928278;29;20039;-80
2021/09/23 03:02:12;;;;;;;6.47;3.40;;;;;;;11.12;64.58;95256.66;4927473;29;20028;-80
2021/09/23 03:04:38;;;;;;;3.72;2.80;;;;;;;11.10;64.28;95250.88;4911571;29;20119;-81
2021/09/23 03:07:03;;;;;;;3.30;3.10;;;;;;;11.09;64.28;95244.09;4934667;29;20032;-81
2021/09/23 03:09:29;;;;;;;2.80;2.60;;;;;;;11.12;64.26;95248.84;4927473;29;20042;-81
2021/09/23 03:11:55;;;;;;;2.90;2.70;;;;;;;11.14;64.04;95254.63;4912096;29;20086;-82
2021/09/23 03:14:20;;;;;;;4.78;3.17;;;;;;;11.11;63.94;95257.66;4926127;29;20040;-84
2021/09/23 03:16:46;;;;;;;5.40;3.33;;;;;;;11.12;64.53;95256.66;4927994;29;20035;-82
2021/09/23 03:19:11;;;;;;;4.35;3.67;;;;;;;11.15;64.18;95258.00;4902811;28;20059;-81
2021/09/23 03:21:37;;;;;;;3.97;3.67;;;;;;;11.12;64.20;95256.66;4934199;29;20047;-80
2021/09/23 03:24:04;;;;;;;3.53;3.33;;;;;;;11.14;63.72;95259.81;4929803;29;20038;-79
2021/09/23 03:26:30;;;;;;;5.60;3.33;;;;;;;11.11;64.09;95252.47;4929523;29;20059;-80
2021/09/23 03:28:55;;;;;;;3.83;3.60;;;;;;;11.05;64.41;95250.75;4914314;29;20124;-79
2021/09/23 03:31:21;;;;;;;4.55;3.28;;;;;;;11.02;64.54;95251.19;4929888;29;20038;-80
2021/09/23 03:33:46;;;;;;;4.30;3.90;;;;;;;11.00;64.90;95261.03;4929502;29;20492;-79
2021/09/23 03:36:12;;;;;;;6.82;3.80;;;;;;;10.97;64.65;95248.47;4930096;29;20028;-80
2021/09/23 03:38:37;;;;;;;4.05;3.75;;;;;;;11.00;64.62;95242.81;4931883;29;20090;-79
2021/09/23 03:41:03;;;;;;;4.43;4.03;;;;;;;10.97;65.01;95246.66;4930531;29;20060;-79
2021/09/23 03:43:28;;;;;;;3.38;3.15;;;;;;;11.00;64.28;95242.81;4931434;29;20043;-79
2021/09/23 03:46:04;;;;;;;3.67;3.47;;;;;;;10.97;64.44;95238.06;4930904;29;20035;-79
2021/09/23 03:48:31;;;;;;;3.90;3.60;;;;;;;10.98;65.26;95250.06;4941446;29;20051;-78
2021/09/23 03:50:58;;;;;;;4.13;3.67;;;;;;;10.99;64.48;95243.84;4921427;29;20028;-77
2021/09/23 03:53:23;;;;;;;3.88;3.63;;;;;;;10.98;64.38;95244.84;4893057;29;20428;-78
2021/09/23 03:55:49;;;;;;;4.35;4.05;;;;;;;11.04;64.77;95254.34;4924234;29;20031;-78
2021/09/23 03:58:14;;;;;;;6.45;3.83;;;;;;;10.98;65.03;95256.06;4923913;29;20040;-78
2021/09/23 04:00:40;;;;;;;3.92;3.58;;;;;;;11.03;64.61;95257.97;4925923;29;20032;-78
2021/09/23 04:03:05;;;;;;;4.20;3.67;;;;;;;11.05;64.54;95259.34;4927611;29;20530;-78
2021/09/23 04:05:30;;;;;;;6.07;3.67;;;;;;;11.05;64.79;95261.16;4922359;29;20032;-78
2021/09/23 04:07:56;;;;;;;4.70;3.95;;;;;;;11.07;65.12;95266.94;4926132;29;20104;-79
2021/09/23 04:10:22;;;;;;;8.20;3.97;;;;;;;11.10;64.89;95263.91;4910177;29;20131;-79
2021/09/23 04:12:49;;;;;;;15.80;4.22;;;;;;;11.07;64.35;95265.13;4926941;29;20036;-77
2021/09/23 04:15:15;;;;;;;4.93;4.50;;;;;;;11.12;64.36;95261.84;4927857;29;20075;-79
2021/09/23 04:17:43;;;;;;;11.88;4.25;;;;;;;11.11;64.52;95270.69;4919058;29;20035;-79
2021/09/23 04:20:09;;;;;;;9.55;3.90;;;;;;;11.15;64.37;95277.03;4914439;29;20040;-79
2021/09/23 04:22:34;;;;;;;4.80;4.32;;;;;;;11.14;64.24;95285.84;4928261;29;20055;-79
2021/09/23 04:25:10;;;;;;;;;;;;;;;;;;;;;
2021/09/23 04:27:28;;;;;;;7.15;4.93;;;;;;;11.19;64.29;95277.38;5267081;23;20052;-79
2021/09/23 04:29:53;;;;;;;10.77;4.63;;;;;;;11.21;64.15;95281.31;4938274;29;20456;-79
2021/09/23 04:32:19;;;;;;;4.75;4.35;;;;;;;11.19;64.18;95272.94;4930806;29;20568;-79
2021/09/23 04:34:44;;;;;;;9.85;4.55;;;;;;;11.14;64.36;95285.84;4939400;29;20054;-80
2021/09/23 04:37:09;;;;;;;4.35;4.05;;;;;;;11.18;63.90;95296.59;4940274;29;20035;-78
2021/09/23 04:39:35;;;;;;;12.00;4.47;;;;;;;11.16;63.73;95293.44;4925417;29;20039;-80
2021/09/23 04:42:01;;;;;;;5.88;4.63;;;;;;;11.16;63.69;95296.03;4990071;23;20047;-79
2021/09/23 04:44:27;;;;;;;5.10;4.70;;;;;;;11.15;63.95;95303.06;4963422;28;20415;-80
2021/09/23 04:46:53;;;;;;;5.47;4.30;;;;;;;11.15;64.00;95312.66;4962815;28;20503;-80
2021/09/23 04:49:18;;;;;;;4.57;4.28;;;;;;;11.13;63.81;95312.91;4937421;29;20031;-79
2021/09/23 04:51:44;;;;;;;9.63;7.03;;;;;;;11.12;64.08;95312.09;4953050;29;20023;-79
2021/09/23 04:54:09;;;;;;;6.22;5.65;;;;;;;11.17;63.57;95321.84;4938508;29;20039;-80
2021/09/23 04:56:35;;;;;;;11.90;5.40;;;;;;;11.13;63.72;95333.72;4949724;29;20031;-79
2021/09/23 04:59:06;;;;;;;5.60;5.10;;;;;;;11.10;63.05;95326.34;4953036;28;20125;-80
2021/09/23 05:01:32;;;;;;;6.20;5.55;;;;;;;11.01;63.73;95338.88;4947532;29;20400;-79
2021/09/23 05:04:15;;;;;;;5.15;4.75;;;;;;;11.01;63.60;95343.28;4945948;29;20043;-79
2021/09/23 05:06:41;;;;;;;5.32;4.93;;;;;;;10.98;63.93;95351.53;4945639;29;20041;-79
2021/09/23 05:09:06;;;;;;;11.43;5.60;;;;;;;10.95;64.02;95357.19;4949031;29;20047;-80
2021/09/23 05:11:32;;;;;;;10.85;6.65;;;;;;;10.91;64.34;95363.84;4947749;29;20020;-79
2021/09/23 05:13:57;;;;;;;6.28;5.68;;;;;;;10.88;64.23;95359.88;4954837;28;20054;-79
2021/09/23 05:16:23;;;;;;;8.82;6.65;;;;;;;10.94;63.71;95358.22;4914430;29;20046;-79
2021/09/23 05:18:48;;;;;;;10.30;6.57;;;;;;;10.96;63.81;95366.59;4945906;29;20035;-80
2021/09/23 05:21:14;;;;;;;11.43;7.32;;;;;;;11.04;64.20;95363.66;4954909;29;20042;-80
2021/09/23 05:23:39;;;;;;;10.43;6.47;;;;;;;11.12;63.91;95373.78;4946473;29;20040;-80
2021/09/23 05:26:05;;;;;;;6.72;6.03;;;;;;;11.20;63.56;95372.66;4954039;29;20055;-80
2021/09/23 05:28:30;;;;;;;11.45;5.28;;;;;;;11.25;63.12;95373.59;4929182;29;20051;-80
2021/09/23 05:30:56;;;;;;;7.55;6.20;;;;;;;11.34;62.60;95380.06;4942271;29;20217;-79
2021/09/23 05:33:21;;;;;;;12.65;7.22;;;;;;;11.39;63.31;95382.81;4930786;29;20511;-80
2021/09/23 05:35:47;;;;;;;13.88;7.80;;;;;;;11.45;62.58;95375.13;4943939;29;20047;-80
2021/09/23 05:38:13;;;;;;;9.68;6.30;;;;;;;11.52;62.40;95386.22;4954841;29;20057;-79
2021/09/23 05:40:38;;;;;;;9.70;7.22;;;;;;;11.60;61.76;95383.31;4947817;29;20028;-80
2021/09/23 05:43:03;;;;;;;8.73;6.78;;;;;;;11.60;61.94;95378.88;4945512;29;20133;-79
2021/09/23 05:45:29;;;;;;;11.85;8.38;;;;;;;11.66;61.61;95380.59;4952102;29;20027;-80
2021/09/23 05:47:54;;;;;;;29.95;14.05;;;;;;;11.72;61.56;95376.31;4947516;29;20039;-80
2021/09/23 05:50:20;;;;;;;13.27;9.73;;;;;;;11.75;60.98;95375.84;4944059;29;20043;-79
2021/09/23 05:52:46;;;;;;;8.48;7.68;;;;;;;11.79;60.54;95377.03;4945109;29;20066;-80
2021/09/23 05:57:45;;;;;;;7.00;6.40;;;;;;;11.88;60.58;95386.09;4914253;29;20052;-80
2021/09/23 06:00:15;;;;;;;7.13;6.40;;;;;;;11.90;60.30;95397.09;4918956;29;20063;-80
2021/09/23 06:02:41;;;;;;;18.02;9.43;;;;;;;12.00;59.88;95399.13;4933699;29;20054;-80
2021/09/23 06:05:07;;;;;;;10.55;7.93;;;;;;;12.13;59.73;95396.31;4934105;29;20032;-80
2021/09/23 06:07:33;;;;;;;10.82;7.53;;;;;;;12.23;59.09;95393.13;4918285;29;20063;-80
2021/09/23 06:09:58;;;;;;;11.90;7.93;;;;;;;12.34;58.50;95394.94;4934850;29;20488;-80
2021/09/23 06:12:24;;;;;;;7.30;6.53;;;;;;;12.46;58.07;95398.31;4937926;29;20035;-80
2021/09/23 06:14:49;;;;;;;9.48;7.13;;;;;;;12.66;57.71;95386.72;4939448;29;20043;-79
2021/09/23 06:17:15;;;;;;;8.35;7.40;;;;;;;12.93;56.37;95403.47;4921593;29;20052;-85
2021/09/23 06:19:40;;;;;;;9.95;6.63;;;;;;;13.16;56.28;95402.56;4921836;29;20036;-80
2021/09/23 06:22:06;;;;;;;14.05;8.27;;;;;;;13.45;55.11;95403.41;4935024;29;20038;-81
2021/09/23 06:24:32;;;;;;;19.15;8.23;;;;;;;13.57;54.33;95406.75;4938505;29;20035;-82
2021/09/23 06:26:57;;;;;;;9.07;7.50;;;;;;;13.66;53.98;95407.94;4923143;29;20045;-82
2021/09/23 06:29:23;;;;;;;27.92;21.52;;;;;;;13.76;54.33;95397.66;4939585;29;20416;-82
2021/09/23 06:31:48;;;;;;;31.83;19.80;;;;;;;13.97;52.96;95403.19;4931541;29;20028;-83
2021/09/23 06:34:13;;;;;;;23.30;17.42;;;;;;;14.16;52.34;95394.09;4917164;29;20552;-82
2021/09/23 06:36:39;;;;;;;26.55;15.50;;;;;;;14.25;52.12;95410.97;4940322;29;20027;-82
2021/09/23 06:39:05;;;;;;;18.73;13.60;;;;;;;14.36;51.57;95407.47;4922452;29;20466;-83
2021/09/23 06:41:31;;;;;;;7.88;7.13;;;;;;;14.42;50.38;95411.72;4922932;29;20059;-81
2021/09/23 06:43:56;;;;;;;8.75;6.95;;;;;;;14.41;50.88;95412.75;4930983;29;20062;-82
2021/09/23 06:46:27;;;;;;;7.70;6.95;;;;;;;14.52;50.72;95416.34;4923139;29;20087;-82
2021/09/23 06:48:53;;;;;;;14.75;8.93;;;;;;;14.62;49.97;95418.28;4939764;29;20036;-82
2021/09/23 06:51:19;;;;;;;9.23;7.72;;;;;;;14.82;50.15;95417.78;4939168;29;20028;-83
2021/09/23 06:53:45;;;;;;;12.30;7.75;;;;;;;14.98;49.80;95425.59;4916469;29;20036;-83
2021/09/23 06:56:10;;;;;;;15.70;7.78;;;;;;;15.12;49.15;95427.81;4922801;29;20043;-82
2021/09/23 06:58:36;;;;;;;10.95;8.02;;;;;;;15.24;48.10;95431.09;4938889;29;20036;-82
2021/09/23 07:01:02;;;;;;;11.35;9.25;;;;;;;15.40;48.02;95422.38;4938755;29;20031;-82
2021/09/23 07:03:27;;;;;;;8.60;7.70;;;;;;;15.37;47.16;95427.31;4939629;29;20042;-82
2021/09/23 07:05:53;;;;;;;12.90;7.47;;;;;;;15.28;47.57;95434.81;4940752;29;20023;-81
2021/09/23 07:08:19;;;;;;;10.60;7.63;;;;;;;15.24;47.79;95431.88;4938534;29;20039;-83
2021/09/23 07:10:45;;;;;;;11.68;7.03;;;;;;;15.26;46.66;95435.06;4921589;29;20100;-83
2021/09/23 07:13:11;;;;;;;15.95;7.57;;;;;;;15.23;46.90;95434.75;4940176;29;20039;-82
2021/09/23 07:15:37;;;;;;;7.72;7.03;;;;;;;15.21;46.82;95434.22;4940259;29;20516;-83
2021/09/23 07:18:03;;;;;;;8.90;7.60;;;;;;;15.29;46.30;95437.22;4928220;29;20671;-81
2021/09/23 07:20:28;;;;;;;10.30;7.63;;;;;;;15.45;46.31;95430.28;4922075;29;20062;-82
2021/09/23 07:22:54;;;;;;;15.52;6.80;;;;;;;15.51;45.49;95431.91;4937952;29;20028;-82
2021/09/23 07:25:23;;;;;;;10.07;6.80;;;;;;;15.54;45.82;95428.81;4937672;29;20664;-82
2021/09/23 07:28:36;;;;;;;10.27;7.80;;;;;;;15.76;46.16;95420.91;4912043;29;20107;-81
2021/09/23 07:31:02;;;;;;;14.30;8.18;;;;;;;15.72;46.02;95409.34;4935571;29;20131;-83
2021/09/23 07:33:28;;;;;;;13.52;6.78;;;;;;;15.75;45.37;95414.06;4940317;29;20072;-82
2021/09/23 07:35:54;;;;;;;8.88;7.15;;;;;;;15.83;44.58;95400.53;4922390;29;20040;-83
2021/09/23 07:38:26;;;;;;;7.95;7.10;;;;;;;15.99;44.12;95406.69;4938732;29;20038;-82
2021/09/23 07:40:51;;;;;;;6.80;6.22;;;;;;;15.91;43.44;95407.13;4938895;29;20039;-82
2021/09/23 07:43:17;;;;;;;7.35;6.07;;;;;;;15.94;43.87;95398.75;4939063;29;20031;-82
2021/09/23 07:45:42;;;;;;;6.75;5.53;;;;;;;16.09;43.50;95401.50;4937860;29;20078;-82
2021/09/23 07:48:08;;;;;;;7.93;6.53;;;;;;;16.23;43.10;95399.22;4922855;29;20060;-82
2021/09/23 07:50:33;;;;;;;14.18;5.82;;;;;;;16.40;42.21;95389.38;4937546;29;20035;-83
2021/09/23 07:56:25;;;;;;;6.85;6.20;;;;;;;16.57;41.19;95362.16;4930553;29;20047;-81
2021/09/23 07:58:50;;;;;;;6.30;5.72;;;;;;;16.30;40.60;95373.56;4951206;29;20039;-82
2021/09/23 08:01:16;;;;;;;8.63;5.68;;;;;;;16.29;41.02;95392.19;4942289;29;20062;-82
2021/09/23 08:03:41;;;;;;;6.28;5.78;;;;;;;16.27;40.92;95395.06;4930048;29;20040;-82
2021/09/23 08:06:07;;;;;;;7.82;4.85;;;;;;;16.36;40.56;95395.38;4942871;29;20034;-83
2021/09/23 08:08:33;;;;;;;6.03;4.85;;;;;;;16.33;40.37;95395.91;4908067;29;20039;-83
2021/09/23 08:11:00;;;;;;;8.43;4.22;;;;;;;16.40;40.11;95399.06;4938989;29;20032;-82
2021/09/23 08:13:25;;;;;;;10.70;4.07;;;;;;;16.34;39.88;95405.34;4915791;29;20041;-83
2021/09/23 08:15:51;;;;;;;5.68;5.15;;;;;;;16.35;39.80;95409.56;4940089;29;20071;-83
2021/09/23 08:18:19;;;;;;;7.03;5.20;;;;;;;16.28;39.95;95407.16;4938934;29;20042;-83
2021/09/23 08:20:44;;;;;;;10.50;4.03;;;;;;;16.17;39.83;95408.13;4930498;29;20467;-82
2021/09/23 08:23:10;;;;;;;12.02;5.28;;;;;;;16.11;40.40;95407.31;4937707;29;20039;-83
2021/09/23 08:25:35;;;;;;;4.95;4.50;;;;;;;15.95;39.95;95413.47;4923064;29;20046;-82
2021/09/23 08:28:01;;;;;;;6.93;4.70;;;;;;;15.85;40.77;95410.75;4939254;29;20032;-83
2021/09/23 08:30:27;;;;;;;9.27;4.43;;;;;;;15.68;40.19;95412.72;4910614;29;20068;-82
2021/09/23 08:32:52;;;;;;;8.05;7.30;;;;;;;15.54;41.34;95418.31;4920419;29;20043;-83
2021/09/23 08:35:18;;;;;;;6.68;5.32;;;;;;;15.41;41.07;95408.22;4939447;29;20035;-83
2021/09/23 08:37:44;;;;;;;8.85;6.75;;;;;;;15.49;40.98;95415.66;4921045;29;20099;-82
2021/09/23 08:40:11;;;;;;;7.20;5.47;;;;;;;15.56;41.07;95420.69;4936175;29;20028;-82
2021/09/23 08:42:37;;;;;;;8.05;4.60;;;;;;;15.67;40.71;95419.00;4940086;29;20035;-82
2021/09/23 08:45:04;;;;;;;5.55;4.93;;;;;;;15.88;40.88;95418.13;4940254;29;20071;-82
2021/09/23 08:47:30;;;;;;;12.90;6.18;;;;;;;15.94;40.52;95413.69;4938762;29;20032;-83
2021/09/23 08:49:56;;;;;;;6.13;5.25;;;;;;;16.04;40.42;95411.97;4920793;29;20034;-83
2021/09/23 08:52:23;;;;;;;10.57;4.57;;;;;;;16.13;39.49;95409.69;4938187;29;20032;-83
2021/09/23 08:54:49;;;;;;;11.02;5.28;;;;;;;15.95;40.33;95413.47;4920345;29;20115;-83
2021/09/23 08:57:14;;;;;;;4.35;4.00;;;;;;;15.82;39.96;95403.41;4923189;29;20031;-81
2021/09/23 08:59:40;;;;;;;11.10;6.03;;;;;;;15.73;41.05;95399.63;4938570;29;20601;-82
2021/09/23 09:02:28;;;;;;;5.45;4.97;;;;;;;15.70;40.54;95405.38;4953954;29;20058;-82
2021/09/23 09:04:54;;;;;;;4.60;4.30;;;;;;;15.77;40.44;95395.47;4935830;29;20446;-82
2021/09/23 09:07:30;;;;;;;10.90;5.85;;;;;;;15.78;40.41;95403.09;4936841;29;20032;-82
2021/09/23 09:10:07;;;;;;;12.93;7.38;;;;;;;15.82;39.92;95404.19;4938092;29;20028;-82
2021/09/23 09:12:33;;;;;;;8.07;6.57;;;;;;;15.86;40.03;95407.88;4940267;29;20500;-82
2021/09/23 09:14:58;;;;;;;15.65;12.23;;;;;;;16.01;40.63;95401.19;4931536;29;20032;-83
2021/09/23 09:17:24;;;;;;;9.38;8.25;;;;;;;16.16;39.76;95403.91;4923625;29;20039;-82
2021/09/23 09:19:51;;;;;;;11.45;4.82;;;;;;;16.20;39.60;95404.97;4942125;29;20031;-82
2021/09/23 09:22:21;;;;;;;4.50;4.10;;;;;;;16.06;39.58;95398.59;4938183;29;20165;-83
2021/09/23 09:24:47;;;;;;;4.25;3.65;;;;;;;15.95;38.74;95407.44;4953031;29;20070;-85
2021/09/23 09:27:32;;;;;;;4.82;3.58;;;;;;;15.63;39.52;95405.59;4937723;29;20078;-81
2021/09/23 09:30:04;;;;;;;3.35;3.15;;;;;;;15.29;39.91;95416.25;4937674;29;20031;-82
2021/09/23 09:32:41;;;;;;;6.80;4.05;;;;;;;15.24;40.88;95415.38;4920608;29;20646;-82
2021/09/23 09:35:09;;;;;;;7.00;6.28;;;;;;;15.33;40.46;95408.69;4936094;29;20043;-81
2021/09/23 09:37:34;;;;;;;6.45;5.30;;;;;;;15.36;40.40;95402.94;4936004;29;20031;-82
2021/09/23 09:40:00;;;;;;;5.88;5.30;;;;;;;15.42;40.69;95396.69;4935582;29;20130;-81
2021/09/23 09:42:27;;;;;;;5.80;5.18;;;;;;;15.41;40.93;95395.13;4927885;29;20032;-82
2021/09/23 09:44:56;;;;;;;3.95;3.65;;;;;;;15.45;40.26;95396.19;4933162;29;20027;-82
2021/09/23 09:47:30;;;;;;;3.83;3.53;;;;;;;15.59;40.35;95400.03;4934861;29;20059;-81
2021/09/23 09:49:56;;;;;;;4.97;4.50;;;;;;;15.82;40.16;95387.66;4934623;29;20040;-82
2021/09/23 09:52:29;;;;;;;8.70;4.60;;;;;;;15.80;39.36;95395.00;4934780;29;20031;-81
2021/09/23 09:55:10;;;;;;;4.55;4.25;;;;;;;15.63;39.86;95382.00;4937005;29;20091;-82
2021/09/23 09:57:49;;;;;;;5.15;3.83;;;;;;;15.50;39.42;95390.22;4937309;29;20075;-81
2021/09/23 10:00:15;;;;;;;5.90;5.20;;;;;;;15.47;40.44;95385.50;4918252;29;20063;-81
2021/09/23 10:02:43;;;;;;;6.63;5.22;;;;;;;15.37;40.85;95391.41;4935189;29;20090;-81
2021/09/23 10:05:10;;;;;;;6.07;5.28;;;;;;;15.42;40.86;95388.03;4933208;29;20168;-82
2021/09/23 10:07:36;;;;;;;5.72;5.22;;;;;;;15.44;40.83;95383.34;4913916;29;20035;-81
2021/09/23 10:10:02;;;;;;;7.13;6.43;;;;;;;15.63;44.89;95378.59;4937391;29;20032;-82
2021/09/23 10:12:28;;;;;;;9.95;5.60;;;;;;;15.68;41.95;95383.88;4935614;29;20024;-82
2021/09/23 10:14:53;;;;;;;4.70;4.30;;;;;;;15.70;41.82;95379.94;4936090;29;20086;-82
2021/09/23 10:17:21;;;;;;;6.10;4.75;;;;;;;15.67;40.75;95385.69;4951646;29;20427;-81
2021/09/23 10:19:46;;;;;;;4.93;3.80;;;;;;;15.69;40.63;95382.81;4935372;29;20031;-82
2021/09/23 10:22:12;;;;;;;13.57;4.25;;;;;;;15.71;40.47;95375.50;4935142;29;20480;-82
2021/09/23 10:24:38;;;;;;;11.23;4.47;;;;;;;15.71;40.37;95376.28;4919129;29;20052;-82
2021/09/23 10:27:57;;;;;;;3.67;3.45;;;;;;;15.76;40.94;95378.16;4904771;29;20040;-82
2021/09/23 10:29:49;;;;;;;5.65;3.50;;;;;;;15.74;41.72;95385.47;4949697;29;20043;-82
2021/09/23 10:32:15;;;;;;;4.13;3.22;;;;;;;15.76;40.83;95380.78;4936005;29;20040;-82
2021/09/23 10:34:42;;;;;;;3.92;3.63;;;;;;;15.69;40.27;95370.50;4936843;29;20431;-82
2021/09/23 10:37:08;;;;;;;3.78;3.53;;;;;;;15.56;42.02;95376.13;4919221;29;20518;-82
2021/09/23 10:39:34;;;;;;;4.38;3.70;;;;;;;15.44;40.26;95381.50;4937455;29;20039;-82
2021/09/23 10:42:25;;;;;;;6.22;4.00;;;;;;;15.39;41.52;95378.84;4910756;29;20385;-81
2021/09/23 10:44:53;;;;;;;3.97;3.58;;;;;;;15.42;40.79;95372.31;4936285;29;20043;-83
2021/09/23 10:47:33;;;;;;;4.20;3.90;;;;;;;15.41;40.72;95376.78;5738332;23;20465;-82
2021/09/23 10:49:59;;;;;;;14.00;4.03;;;;;;;15.44;40.49;95376.28;4937139;29;20055;-83
2021/09/23 10:52:31;;;;;;;3.40;3.20;;;;;;;15.42;41.03;95378.34;4923600;29;20088;-83
2021/09/23 10:55:00;;;;;;;4.03;3.70;;;;;;;15.45;41.73;95382.31;4923224;29;20035;-83
2021/09/23 10:57:26;;;;;;;4.63;3.83;;;;;;;15.43;41.34;95374.69;4910637;29;20036;-83
2021/09/23 10:59:53;;;;;;;4.25;3.70;;;;;;;15.33;40.49;95377.22;4915286;29;20570;-82
2021/09/23 11:02:25;;;;;;;4.72;3.17;;;;;;;15.33;40.40;95377.22;4930660;29;20024;-82
2021/09/23 11:04:59;;;;;;;3.67;3.38;;;;;;;15.36;40.15;95379.34;4912623;29;20064;-82
2021/09/23 11:07:25;;;;;;;5.28;3.70;;;;;;;15.42;41.06;95372.31;4929235;29;20063;-82
2021/09/23 11:10:10;;;;;;;10.38;3.83;;;;;;;15.44;40.97;95370.25;4929516;29;20630;-82
2021/09/23 11:12:37;;;;;;;4.05;3.50;;;;;;;15.43;40.79;95364.19;4928437;29;20059;-81
2021/09/23 11:15:03;;;;;;;3.45;3.17;;;;;;;15.42;40.44;95362.63;4935417;29;20036;-83
2021/09/23 11:17:29;;;;;;;3.25;2.97;;;;;;;15.44;40.78;95365.78;4932864;29;20032;-82
2021/09/23 11:20:31;;;;;;;3.03;2.75;;;;;;;15.45;40.94;95367.38;4927183;29;20542;-82
2021/09/23 11:23:00;;;;;;;4.13;3.80;;;;;;;15.55;41.17;95356.97;4927655;29;20044;-82
2021/09/23 11:25:51;;;;;;;3.28;3.00;;;;;;;15.60;40.92;95343.16;4929781;29;20044;-81
2021/09/23 11:28:18;;;;;;;4.68;4.22;;;;;;;15.59;40.83;95352.84;4929982;29;20535;-82
2021/09/23 11:30:43;;;;;;;3.63;3.33;;;;;;;15.67;40.06;95350.81;4933197;29;20028;-80
2021/09/23 11:33:10;;;;;;;6.05;3.30;;;;;;;15.74;40.68;95346.16;4930151;29;20035;-82
2021/09/23 11:35:54;;;;;;;7.95;3.72;;;;;;;15.75;38.55;95335.41;4909876;29;20036;-83
2021/09/23 11:38:20;;;;;;;3.88;3.55;;;;;;;15.75;39.17;95345.09;4912395;29;20035;-81
2021/09/23 11:40:57;;;;;;;3.40;3.20;;;;;;;15.78;39.78;95339.34;4926976;29;20119;-83
2021/09/23 11:43:26;;;;;;;4.15;3.60;;;;;;;15.80;39.78;95332.84;4918944;29;20035;-82